Historique des mesures à Cassis (13260), France
Quotidien Résumé Avril 15, 2017 Unités:  Métrique    US   Métrique/US
« Précédent (Jour)
Suivant (Jour) »
Quotidien Hebdomadaire Mensuel Annuel Période au choix
  Maximum: Minimum: Moyenne:
Température: TemperatureC °C 15.6 °C 18.1 °C
Point de rosée: DewpointC °C 6.0 °C 7.9 °C
Humidité: Humidity % 43 % 49 %
Vitesse du vent: 0 km/h 6.4 km/h 23.5 km/h
Rafales: 0 km/h - -
Vent:- - South
Pression: PressurehPa hPa 1010.0 hPa -
Précipitations: 0.0 mm    
Historical Graphs
 
 
Mesures pour : Avril 15, 2017
Heure Temperature Point de rosée Pression Vent Vitesse du vent Rafales Humidité Pluie (par heure) Conditions
TemperatureC °C DewpointC °C PressurehPa hPa Calm     Humidity % HourlyPrecipMM mm SoftwareType W/m2
00:11 19.3 °C 8.9 °C 1010.4 hPa North 6.4 km/h 6.4 km/h 51 % 0.0 mm open2300-1.11 W/m2
01:11 19.4 °C 8.4 °C 1010.4 hPa NNW 9.8 km/h 9.8 km/h 49 % 0.0 mm open2300-1.11 W/m2
02:11 19.5 °C 7.9 °C 1010.7 hPa NW 20.9 km/h 20.9 km/h 47 % 0.0 mm open2300-1.11 W/m2
03:11 19.2 °C 8.2 °C 1010.7 hPa NW 10.9 km/h 16.9 km/h 49 % 0.0 mm open2300-1.11 W/m2
04:11 18.2 °C 8.2 °C 1011.1 hPa North 15.6 km/h 26.7 km/h 52 % 0.0 mm open2300-1.11 W/m2
05:11 17.9 °C 7.8 °C 1010.7 hPa North 22.5 km/h 35.2 km/h 52 % 0.0 mm open2300-1.11 W/m2
06:11 17.3 °C 7.6 °C 1010.7 hPa NNE 19.2 km/h 40.7 km/h 53 % 0.0 mm open2300-1.11 W/m2
07:11 17.2 °C 7.2 °C 1011.1 hPa North 22 km/h 38.3 km/h 52 % 0.0 mm open2300-1.11 W/m2
08:10 17.1 °C 7.4 °C 1011.7 hPa NNE 19.2 km/h 19.2 km/h 53 % 0.0 mm open2300-1.11 W/m2
09:11 17.5 °C 7.5 °C 1011.7 hPa NNW 21.6 km/h 21.6 km/h 52 % 0.0 mm open2300-1.11 W/m2
10:11 18.3 °C 7.9 °C 1012.1 hPa North 19.6 km/h 38.3 km/h 51 % 0.0 mm open2300-1.11 W/m2
11:11 19.3 °C 8.0 °C 1012.1 hPa NNE 30.7 km/h 51 km/h 48 % 0.0 mm open2300-1.11 W/m2
12:11 20.9 °C 8.4 °C 1012.1 hPa NE 13.2 km/h 29 km/h 45 % 0.0 mm open2300-1.11 W/m2
13:11 21.6 °C 8.4 °C 1012.1 hPa NW 12.7 km/h 22.5 km/h 43 % 0.0 mm open2300-1.11 W/m2
14:11 21.5 °C 8.7 °C 1011.4 hPa NNW 40.7 km/h 40.7 km/h 44 % 0.0 mm open2300-1.11 W/m2
15:11 20.1 °C 10.4 °C 1011.7 hPa NW 47.3 km/h 47.3 km/h 54 % 0.0 mm open2300-1.11 W/m2
16:11 19.6 °C 10.8 °C 1011.4 hPa WNW 25.4 km/h 49.2 km/h 57 % 0.0 mm open2300-1.11 W/m2
17:11 19.9 °C 10.8 °C 1010.7 hPa WNW 18.7 km/h 62.6 km/h 56 % 0.0 mm open2300-1.11 W/m2
18:11 18.9 °C 11.0 °C 1010.0 hPa NW 49.2 km/h 49.2 km/h 60 % 0.0 mm open2300-1.11 W/m2
19:11 19.6 °C 8.3 °C 1010.0 hPa West 12.2 km/h 17.4 km/h 48 % 0.0 mm open2300-1.11 W/m2
20:11 19.2 °C 7.3 °C 1010.4 hPa NNW 21.6 km/h 59.1 km/h 46 % 0.0 mm open2300-1.11 W/m2
21:11 17.9 °C 6.7 °C 1011.1 hPa North 39.9 km/h 39.9 km/h 48 % 0.0 mm open2300-1.11 W/m2
22:11 16.8 °C 6.8 °C 1011.1 hPa NNE 36 km/h 38.8 km/h 52 % 0.0 mm open2300-1.11 W/m2
23:11 15.6 °C 6.0 °C 1012.1 hPa NW 52.8 km/h 52.8 km/h 53 % 0.0 mm open2300-1.11 W/m2
Observations météo à CASSIS
WU-History script by Weather Underground - 1 mb